Time;durP1;ratioP1;P1;durP2;ratioP2;P2;SDS_P1;SDS_P2;PMS_P1;PMS_P2;Temp;Humidity;BMP_temperature;BMP_pressure;BME280_temperature;BME280_humidity;BME280_pressure;Samples;Min_cycle;Max_cycle;Signal;HPM_P1;HPM_P2
2023/01/29 00:01:58;;;;;;;31.25;16.20;;;-1.30;70.60;;;;;;4634250;30;114713;-78
2023/01/29 00:04:25;;;;;;;33.72;16.65;;;-1.30;70.70;;;;;;4635630;30;114406;-78
2023/01/29 00:06:53;;;;;;;31.05;16.77;;;-1.30;70.60;;;;;;4633675;30;114789;-79
2023/01/29 00:09:20;;;;;;;31.42;16.30;;;-1.40;70.70;;;;;;4647060;30;116310;-79
2023/01/29 00:11:47;;;;;;;33.58;17.95;;;-1.40;70.70;;;;;;4619209;30;114616;-80
2023/01/29 00:14:14;;;;;;;37.45;19.00;;;-1.40;70.60;;;;;;4634725;30;114754;-79
2023/01/29 00:16:42;;;;;;;31.40;14.82;;;-1.40;70.80;;;;;;4634131;30;114533;-79
2023/01/29 00:19:09;;;;;;;28.17;14.75;;;-1.30;70.90;;;;;;4633730;30;116343;-79
2023/01/29 00:21:36;;;;;;;24.85;13.57;;;-1.30;70.90;;;;;;4634585;30;114671;-78
2023/01/29 00:24:04;;;;;;;26.33;14.75;;;-1.30;70.90;;;;;;4635663;30;114441;-79
2023/01/29 00:26:31;;;;;;;26.25;13.05;;;-1.30;70.90;;;;;;4636153;30;120203;-79
2023/01/29 00:29:00;;;;;;;27.40;13.80;;;-1.30;70.90;;;;;;4634366;30;115326;-79
2023/01/29 00:31:28;;;;;;;24.15;13.20;;;-1.20;70.80;;;;;;4634729;30;114940;-79
2023/01/29 00:33:55;;;;;;;23.83;12.73;;;-1.20;70.80;;;;;;4650108;30;114907;-79
2023/01/29 00:36:23;;;;;;;26.17;13.00;;;-1.20;70.80;;;;;;4636929;30;114731;-79
2023/01/29 00:38:59;;;;;;;25.48;12.77;;;-1.20;70.80;;;;;;4650485;30;115388;-79
2023/01/29 00:47:01;;;;;;;24.88;12.73;;;-1.20;70.80;;;;;;4652423;30;114463;-80
2023/01/29 00:49:29;;;;;;;24.70;12.52;;;-1.20;70.70;;;;;;4650128;30;115659;-79
2023/01/29 00:54:43;;;;;;;23.63;12.55;;;-1.10;70.80;;;;;;4650791;30;114458;-79
2023/01/29 00:57:10;;;;;;;21.83;12.10;;;-1.10;70.80;;;;;;4636330;30;114514;-79
2023/01/29 00:59:38;;;;;;;21.10;12.48;;;-1.00;70.60;;;;;;4634754;30;115227;-79
2023/01/29 01:05:18;;;;;;;23.73;11.73;;;-1.10;70.50;;;;;;4618208;30;114813;-79
2023/01/29 01:07:46;;;;;;;;;;;-1.10;70.40;;;;;;4620050;30;114521;-80
2023/01/29 01:10:30;;;;;;;26.75;12.13;;;-1.20;70.30;;;;;;4620957;30;115446;-79
2023/01/29 01:13:03;;;;;;;25.25;14.07;;;-1.20;70.50;;;;;;4621383;30;115362;-79
2023/01/29 01:15:38;;;;;;;26.88;12.90;;;-1.20;70.50;;;;;;4622104;30;114385;-80
2023/01/29 01:18:05;;;;;;;31.75;16.15;;;-1.20;70.50;;;;;;4650870;30;114372;-80
2023/01/29 01:20:34;;;;;;;24.73;12.82;;;-1.20;70.40;;;;;;4635468;30;115890;-79
2023/01/29 01:23:01;;;;;;;21.75;11.82;;;-1.20;70.30;;;;;;4650943;30;114951;-79
2023/01/29 01:25:29;;;;;;;25.80;13.27;;;-1.30;70.10;;;;;;4635784;30;115788;-80
2023/01/29 01:27:57;;;;;;;22.33;12.45;;;-1.30;69.90;;;;;;4635681;30;115611;-80
2023/01/29 01:30:25;;;;;;;22.70;12.15;;;-1.40;69.80;;;;;;4620348;30;117093;-79
2023/01/29 01:32:52;;;;;;;23.20;12.15;;;-1.60;69.90;;;;;;4633932;30;117013;-80
2023/01/29 01:35:20;;;;;;;24.92;12.60;;;-1.60;70.10;;;;;;4650243;30;114670;-79
2023/01/29 01:37:48;;;;;;;22.92;12.13;;;-1.60;70.20;;;;;;4634938;30;114625;-80
2023/01/29 01:40:20;;;;;;;20.10;11.02;;;-1.70;69.90;;;;;;4634707;30;115409;-79
2023/01/29 01:42:52;;;;;;;20.10;11.45;;;-1.70;69.70;;;;;;4620398;30;114743;-79
2023/01/29 01:45:34;;;;;;;20.20;10.95;;;-1.80;69.70;;;;;;4635197;30;114573;-80
2023/01/29 01:48:22;;;;;;;21.27;10.88;;;-1.90;69.80;;;;;;4635166;30;114908;-79
2023/01/29 01:50:59;;;;;;;21.95;10.48;;;-1.90;69.80;;;;;;4633403;30;115626;-80
2023/01/29 01:53:39;;;;;;;21.02;11.10;;;-1.90;69.90;;;;;;4634589;30;117152;-79
2023/01/29 01:56:14;;;;;;;20.13;10.80;;;-1.90;69.80;;;;;;4635056;30;114548;-80
2023/01/29 01:58:45;;;;;;;20.95;11.02;;;-1.90;69.90;;;;;;4634892;30;114842;-79
2023/01/29 02:01:13;;;;;;;22.52;12.25;;;-1.90;69.70;;;;;;4620421;30;115114;-79
2023/01/29 02:09:36;;;;;;;21.17;10.95;;;-2.10;69.70;;;;;;4638238;30;114541;-80
2023/01/29 02:12:07;;;;;;;20.50;11.88;;;-2.10;69.80;;;;;;4635387;30;115204;-79
2023/01/29 02:14:37;;;;;;;25.25;13.70;;;-2.00;69.80;;;;;;4634205;30;116006;-79
2023/01/29 02:17:15;;;;;;;23.40;12.40;;;-2.00;69.70;;;;;;4634668;30;115012;-80
2023/01/29 02:20:00;;;;;;;19.83;11.25;;;-1.90;69.70;;;;;;4620582;30;114952;-80
2023/01/29 02:23:08;;;;;;;21.27;11.48;;;-1.90;69.70;;;;;;4649488;30;115164;-79
2023/01/29 02:26:05;;;;;;;21.92;12.07;;;-1.90;69.50;;;;;;4647221;30;116275;-79
2023/01/29 02:29:21;;;;;;;23.33;11.02;;;-1.80;69.50;;;;;;4650272;30;114475;-78
2023/01/29 02:31:59;;;;;;;20.58;11.27;;;-1.80;69.30;;;;;;4637480;30;114621;-79
2023/01/29 02:37:30;;;;;;;17.08;9.02;;;-1.80;69.20;;;;;;4629021;30;116044;-79
2023/01/29 02:40:08;;;;;;;;;;;-1.80;69.10;;;;;;4617807;30;114768;-79
2023/01/29 02:42:46;;;;;;;18.05;9.77;;;-1.80;69.10;;;;;;4619030;30;115520;-79
2023/01/29 02:45:29;;;;;;;19.60;10.00;;;-1.80;68.80;;;;;;4616175;30;115423;-79
2023/01/29 02:47:59;;;;;;;21.83;9.82;;;-1.80;68.50;;;;;;4616658;30;114998;-79
2023/01/29 02:50:53;;;;;;;18.65;9.95;;;-1.70;68.60;;;;;;4631744;30;114849;-79
2023/01/29 02:53:32;;;;;;;13.60;7.10;;;-1.70;68.00;;;;;;4602133;30;114518;-80
2023/01/29 02:56:25;;;;;;;14.55;8.05;;;-1.80;68.10;;;;;;4617375;30;116410;-79
2023/01/29 02:59:01;;;;;;;13.40;8.02;;;-1.70;68.00;;;;;;4631078;30;114731;-79
2023/01/29 03:01:57;;;;;;;11.15;6.35;;;-1.70;67.90;;;;;;4631869;30;114477;-83
2023/01/29 03:04:30;;;;;;;12.52;7.18;;;-1.70;67.60;;;;;;4604310;30;114332;-79
2023/01/29 03:07:06;;;;;;;10.02;5.57;;;-1.70;67.60;;;;;;4617595;30;115157;-79
2023/01/29 03:09:47;;;;;;;11.27;6.70;;;-1.70;67.40;;;;;;4617391;30;115393;-78
2023/01/29 03:12:32;;;;;;;9.85;5.40;;;-1.70;67.30;;;;;;4632326;30;114400;-79
2023/01/29 03:15:15;;;;;;;8.52;5.05;;;-1.60;67.20;;;;;;4630959;30;114459;-79
2023/01/29 03:18:06;;;;;;;8.52;5.60;;;-1.60;67.00;;;;;;4604373;30;115626;-79
2023/01/29 03:20:38;;;;;;;9.45;5.07;;;-1.60;66.70;;;;;;4631275;30;114598;-79
2023/01/29 03:23:10;;;;;;;8.77;4.50;;;-1.70;66.50;;;;;;4645793;30;114502;-79
2023/01/29 03:34:23;;;;;;;8.20;5.00;;;-1.70;66.30;;;;;;4635629;30;114914;-78
2023/01/29 03:36:54;;;;;;;7.53;4.18;;;-1.70;66.10;;;;;;4648636;30;114914;-79
2023/01/29 03:39:27;;;;;;;8.15;4.93;;;-1.70;66.00;;;;;;4618950;30;117199;-79
2023/01/29 03:42:01;;;;;;;9.07;5.40;;;-1.70;65.70;;;;;;4620391;30;114705;-79
2023/01/29 03:44:44;;;;;;;11.63;5.10;;;-1.70;65.50;;;;;;4635339;30;115292;-79
2023/01/29 03:47:39;;;;;;;7.82;5.35;;;-1.60;65.30;;;;;;4649250;30;114299;-79
2023/01/29 03:50:14;;;;;;;9.63;5.13;;;-1.60;64.90;;;;;;4648302;30;115148;-79
2023/01/29 03:53:20;;;;;;;12.13;6.20;;;-1.60;65.50;;;;;;4648139;30;114890;-79
2023/01/29 03:56:06;;;;;;;;;;;-1.50;65.30;;;;;;4635522;30;114815;-79
2023/01/29 03:58:36;;;;;;;;;;;-1.60;65.80;;;;;;4620280;30;114632;-79
2023/01/29 04:01:14;;;;;;;12.27;5.45;;;-1.50;65.80;;;;;;4633891;30;116206;-79
2023/01/29 04:03:52;;;;;;;8.68;5.47;;;-1.50;65.00;;;;;;4634027;30;114708;-79
2023/01/29 04:06:23;;;;;;;10.10;5.05;;;-1.50;65.10;;;;;;4634400;30;114581;-79
2023/01/29 04:09:20;;;;;;;13.45;5.50;;;-1.60;64.70;;;;;;4634892;30;114469;-79
2023/01/29 04:12:08;;;;;;;7.93;5.03;;;-1.60;64.00;;;;;;4619737;30;116323;-79
2023/01/29 04:14:38;;;;;;;9.18;5.15;;;-1.70;64.00;;;;;;4634138;30;114736;-79
2023/01/29 04:17:13;;;;;;;10.32;5.30;;;-1.70;64.10;;;;;;4620443;30;114476;-78
2023/01/29 04:19:50;;;;;;;8.60;4.35;;;-1.70;64.20;;;;;;4634236;30;115856;-78
2023/01/29 04:22:33;;;;;;;7.95;4.90;;;-1.70;63.70;;;;;;4633576;30;115114;-78
2023/01/29 04:25:07;;;;;;;8.68;4.88;;;-1.70;63.90;;;;;;4634030;30;114855;-78
2023/01/29 04:27:49;;;;;;;8.70;5.22;;;-1.60;64.10;;;;;;4634556;30;114536;-78
2023/01/29 04:30:35;;;;;;;8.90;5.15;;;-1.60;64.00;;;;;;4620249;30;114574;-78
2023/01/29 04:33:23;;;;;;;8.20;4.53;;;-1.60;64.00;;;;;;4647250;30;115691;-78
2023/01/29 04:36:10;;;;;;;9.98;5.15;;;-1.50;63.80;;;;;;4633076;30;114772;-78
2023/01/29 04:38:52;;;;;;;7.78;4.10;;;-1.50;63.90;;;;;;4647656;30;114486;-77
2023/01/29 04:42:04;;;;;;;7.43;4.97;;;-1.50;63.40;;;;;;4636191;30;114448;-77
2023/01/29 04:45:20;;;;;;;8.50;4.75;;;-1.40;63.70;;;;;;4617396;30;115458;-78
2023/01/29 04:48:16;;;;;;;6.63;4.30;;;-1.40;63.60;;;;;;4643745;30;114750;-78
2023/01/29 04:51:08;;;;;;;8.57;4.47;;;-1.40;63.70;;;;;;4635983;30;115666;-78
2023/01/29 04:54:05;;;;;;;9.90;5.22;;;-1.40;63.90;;;;;;4645886;30;114528;-79
2023/01/29 04:57:05;;;;;;;10.07;4.85;;;-1.30;63.80;;;;;;4630815;30;115359;-78
2023/01/29 04:59:37;;;;;;;9.00;4.78;;;-1.30;64.10;;;;;;4644514;30;115920;-78
2023/01/29 05:02:05;;;;;;;8.52;4.75;;;-1.30;63.90;;;;;;4633862;30;114820;-79
2023/01/29 05:04:32;;;;;;;10.10;5.30;;;-1.20;63.80;;;;;;4633869;30;114940;-79
2023/01/29 05:07:04;;;;;;;10.30;5.85;;;-1.20;63.60;;;;;;4633425;30;115188;-78
2023/01/29 05:09:31;;;;;;;8.10;5.00;;;-1.20;63.50;;;;;;4633144;30;114872;-78
2023/01/29 05:12:00;;;;;;;10.02;5.80;;;-1.20;63.80;;;;;;4634223;30;114381;-78
2023/01/29 05:14:29;;;;;;;11.77;5.50;;;-1.10;63.80;;;;;;4647289;30;114972;-79
2023/01/29 05:16:56;;;;;;;7.28;5.35;;;-1.10;63.80;;;;;;4633275;30;115140;-78
2023/01/29 05:19:23;;;;;;;8.25;5.70;;;-1.10;63.70;;;;;;4647692;30;119139;-77
2023/01/29 05:21:51;;;;;;;10.18;5.22;;;-1.00;63.50;;;;;;4633495;30;117245;-78
2023/01/29 05:24:21;;;;;;;8.70;5.45;;;-1.00;63.30;;;;;;4648090;30;114475;-78
2023/01/29 05:29:35;;;;;;;10.55;6.05;;;-1.00;63.30;;;;;;4633388;30;114664;-78
2023/01/29 05:32:03;;;;;;;10.48;5.63;;;-0.90;63.30;;;;;;4633856;30;114489;-77
2023/01/29 05:34:30;;;;;;;9.88;6.60;;;-0.90;63.40;;;;;;4641485;30;115011;-78
2023/01/29 05:36:57;;;;;;;8.82;5.47;;;-0.90;63.30;;;;;;4649873;30;115539;-78
2023/01/29 05:39:24;;;;;;;7.60;5.43;;;-0.90;62.90;;;;;;4635345;30;116148;-78
2023/01/29 05:41:51;;;;;;;10.27;6.70;;;-1.00;62.60;;;;;;4650955;30;114514;-78
2023/01/29 05:44:19;;;;;;;11.23;5.93;;;-1.10;62.30;;;;;;4637070;30;114427;-79
2023/01/29 05:46:46;;;;;;;16.23;6.70;;;-1.10;62.30;;;;;;4621566;30;117247;-78
2023/01/29 05:49:15;;;;;;;12.63;6.93;;;-1.20;62.40;;;;;;4651517;30;114724;-78
2023/01/29 05:51:42;;;;;;;11.48;6.88;;;-1.10;62.40;;;;;;4650715;30;114622;-78
2023/01/29 05:54:12;;;;;;;11.38;6.20;;;-1.10;62.20;;;;;;4636533;30;115414;-78
2023/01/29 05:56:40;;;;;;;11.13;7.10;;;-1.10;62.00;;;;;;4636108;30;115313;-79
2023/01/29 05:59:07;;;;;;;13.73;6.78;;;-1.10;62.10;;;;;;4649863;30;114734;-78
2023/01/29 06:01:34;;;;;;;12.43;7.30;;;-1.20;61.70;;;;;;4651664;30;114433;-79
2023/01/29 06:04:02;;;;;;;10.68;7.28;;;-1.20;62.00;;;;;;4650445;30;114279;-79
2023/01/29 06:06:29;;;;;;;14.43;8.02;;;-1.20;62.20;;;;;;4623617;30;115977;-79
2023/01/29 06:08:56;;;;;;;11.65;8.00;;;-1.10;62.10;;;;;;4654329;30;114706;-79
2023/01/29 06:11:24;;;;;;;12.20;7.15;;;-1.10;62.20;;;;;;4654745;30;114457;-79
2023/01/29 06:13:51;;;;;;;11.80;7.88;;;-1.10;62.10;;;;;;4624843;30;118031;-79
2023/01/29 06:16:18;;;;;;;10.85;7.10;;;-1.10;62.10;;;;;;4637384;30;116332;-79
2023/01/29 06:18:46;;;;;;;11.43;7.15;;;-1.10;62.20;;;;;;4638237;30;114830;-79
2023/01/29 06:21:13;;;;;;;11.57;7.28;;;-1.00;62.10;;;;;;4654665;30;114554;-79
2023/01/29 06:23:40;;;;;;;15.02;7.40;;;-1.00;62.10;;;;;;4653231;30;114323;-79
2023/01/29 06:26:11;;;;;;;10.95;7.20;;;-1.00;62.10;;;;;;4637911;30;115233;-79
2023/01/29 06:28:38;;;;;;;10.73;7.10;;;-1.00;62.00;;;;;;4652019;30;115338;-79
2023/01/29 06:31:08;;;;;;;12.65;7.28;;;-1.00;62.10;;;;;;4654059;30;114527;-79
2023/01/29 06:33:56;;;;;;;11.18;7.65;;;-1.00;62.20;;;;;;4638304;30;114983;-79
2023/01/29 06:36:23;;;;;;;10.73;6.50;;;-1.00;62.10;;;;;;4653303;30;115475;-79
2023/01/29 06:38:50;;;;;;;9.85;6.07;;;-0.90;62.40;;;;;;4652089;30;114637;-79
2023/01/29 06:41:18;;;;;;;11.40;6.57;;;-1.00;62.50;;;;;;4652538;30;114459;-79
2023/01/29 06:43:45;;;;;;;8.13;5.80;;;-0.90;62.20;;;;;;4653766;30;114909;-79
2023/01/29 06:46:13;;;;;;;9.55;6.60;;;-1.00;62.10;;;;;;4653054;30;115078;-80
2023/01/29 06:48:40;;;;;;;9.73;6.63;;;-1.00;62.10;;;;;;4653205;30;114663;-80
2023/01/29 06:51:08;;;;;;;9.52;6.32;;;-0.90;62.10;;;;;;4654057;30;114597;-80
2023/01/29 06:53:36;;;;;;;9.98;6.30;;;-0.90;61.90;;;;;;4624265;30;114564;-80
2023/01/29 06:56:04;;;;;;;10.15;6.28;;;-0.90;62.00;;;;;;4650835;30;115639;-80
2023/01/29 06:58:31;;;;;;;8.43;5.70;;;-0.90;61.90;;;;;;4637856;30;114827;-80
2023/01/29 07:01:07;;;;;;;10.73;7.03;;;-0.90;62.10;;;;;;4638536;30;114365;-79
2023/01/29 07:03:34;;;;;;;10.32;7.05;;;-0.80;61.80;;;;;;4639595;30;114797;-80
2023/01/29 07:06:01;;;;;;;14.98;8.18;;;-0.80;61.90;;;;;;4651329;30;115334;-79
2023/01/29 07:08:29;;;;;;;11.65;7.80;;;-0.90;61.90;;;;;;4623119;30;114686;-79
2023/01/29 07:10:59;;;;;;;9.10;5.50;;;-0.80;61.90;;;;;;4653358;30;114936;-79
2023/01/29 07:13:26;;;;;;;9.18;5.63;;;-0.90;61.60;;;;;;4653633;30;114444;-79
2023/01/29 07:15:57;;;;;;;8.35;5.07;;;-0.90;61.60;;;;;;4651029;30;115105;-77
2023/01/29 07:18:25;;;;;;;8.32;5.53;;;-0.90;61.50;;;;;;4637235;30;114708;-80
2023/01/29 07:20:52;;;;;;;8.50;5.35;;;-0.90;61.20;;;;;;4652946;30;114575;-78
2023/01/29 07:23:20;;;;;;;9.52;5.45;;;-0.90;61.30;;;;;;4653898;30;114276;-80
2023/01/29 07:25:48;;;;;;;10.43;5.32;;;-0.90;61.40;;;;;;4652313;30;115400;-80
2023/01/29 07:28:19;;;;;;;8.30;5.90;;;-0.90;61.40;;;;;;4651247;30;114735;-80
2023/01/29 07:30:56;;;;;;;8.80;5.95;;;-0.80;61.30;;;;;;4651419;30;114726;-80
2023/01/29 07:33:24;;;;;;;10.52;6.18;;;-0.80;61.10;;;;;;4637887;30;114470;-79
2023/01/29 07:35:51;;;;;;;9.35;5.60;;;-0.90;61.30;;;;;;4633720;30;115208;-78
2023/01/29 07:38:18;;;;;;;9.88;5.47;;;-0.80;61.30;;;;;;4634114;30;114656;-79
2023/01/29 07:40:46;;;;;;;8.48;5.38;;;-0.80;61.30;;;;;;4648717;30;114925;-80
2023/01/29 07:43:13;;;;;;;8.27;5.75;;;-0.90;61.50;;;;;;4648710;30;114510;-78
2023/01/29 07:45:40;;;;;;;7.82;5.28;;;-0.80;61.50;;;;;;4648143;30;118104;-78
2023/01/29 07:48:10;;;;;;;8.55;5.72;;;-0.80;61.50;;;;;;4633232;30;114700;-79
2023/01/29 07:50:38;;;;;;;10.38;6.00;;;-0.80;61.40;;;;;;4648831;30;114730;-79
2023/01/29 07:53:05;;;;;;;10.73;6.28;;;-0.70;61.50;;;;;;4648630;30;114583;-79
2023/01/29 07:55:32;;;;;;;9.25;6.22;;;-0.70;61.50;;;;;;4634091;30;117254;-79
2023/01/29 07:58:01;;;;;;;11.07;6.90;;;-0.70;61.60;;;;;;4633756;30;115074;-79
2023/01/29 08:00:30;;;;;;;9.38;6.25;;;-0.70;61.40;;;;;;4634360;30;116647;-79
2023/01/29 08:03:13;;;;;;;9.13;5.68;;;-0.70;61.20;;;;;;4647765;30;114722;-79
2023/01/29 08:05:40;;;;;;;10.90;6.45;;;-0.60;60.90;;;;;;4646463;30;115225;-79
2023/01/29 08:08:07;;;;;;;8.45;5.70;;;-0.60;61.20;;;;;;4633941;30;114801;-79
2023/01/29 08:10:35;;;;;;;10.23;6.30;;;-0.60;60.90;;;;;;4647731;30;114738;-78
2023/01/29 08:13:03;;;;;;;11.45;6.18;;;-0.60;61.10;;;;;;4633904;30;114517;-78
2023/01/29 08:15:30;;;;;;;13.50;6.97;;;-0.60;61.20;;;;;;4632717;30;115394;-78
2023/01/29 08:17:57;;;;;;;11.25;7.28;;;-0.60;61.20;;;;;;4646797;30;115248;-79
2023/01/29 08:20:24;;;;;;;10.23;6.80;;;-0.40;61.50;;;;;;4634047;30;114582;-79
2023/01/29 08:23:06;;;;;;;7.70;6.10;;;-0.40;61.30;;;;;;4634655;30;114635;-78
2023/01/29 08:25:33;;;;;;;9.85;6.88;;;-0.30;61.00;;;;;;4646325;30;118110;-79
2023/01/29 08:28:00;;;;;;;11.45;7.50;;;-0.30;61.00;;;;;;4631370;30;115798;-78
2023/01/29 08:30:30;;;;;;;13.77;7.20;;;-0.20;60.80;;;;;;4633562;30;114876;-78
2023/01/29 08:32:57;;;;;;;11.77;7.05;;;-0.20;60.90;;;;;;4647276;30;114765;-77
2023/01/29 08:35:24;;;;;;;10.88;6.88;;;-0.20;60.70;;;;;;4646381;30;115144;-78
2023/01/29 08:38:00;;;;;;;10.88;6.63;;;-0.20;60.60;;;;;;4621075;30;118016;-79
2023/01/29 08:40:30;;;;;;;12.48;7.50;;;-0.20;60.50;;;;;;4650331;30;114529;-78
2023/01/29 08:43:02;;;;;;;12.00;7.00;;;-0.10;60.80;;;;;;4650209;30;114591;-79
2023/01/29 08:45:35;;;;;;;11.27;7.20;;;0.00;60.70;;;;;;4620278;30;115210;-80
2023/01/29 08:48:03;;;;;;;13.02;7.88;;;0.10;60.60;;;;;;4650517;30;116115;-79
2023/01/29 08:50:31;;;;;;;18.35;9.88;;;0.10;60.60;;;;;;4650142;30;114840;-79
2023/01/29 08:52:59;;;;;;;12.38;7.97;;;0.30;60.60;;;;;;4636193;30;114406;-80
2023/01/29 08:55:27;;;;;;;13.80;7.97;;;0.40;60.50;;;;;;4649424;30;115109;-78
2023/01/29 08:57:56;;;;;;;12.15;7.55;;;0.50;60.30;;;;;;4649064;30;115417;-78
2023/01/29 09:00:23;;;;;;;12.77;8.13;;;0.50;59.90;;;;;;4649521;30;114652;-78
2023/01/29 09:02:50;;;;;;;13.52;7.10;;;0.60;59.70;;;;;;4636269;30;114437;-79
2023/01/29 09:05:18;;;;;;;12.23;7.70;;;0.60;59.70;;;;;;4647978;30;115205;-79
2023/01/29 09:07:45;;;;;;;11.80;7.30;;;0.60;59.70;;;;;;4648728;30;114581;-79
2023/01/29 09:10:13;;;;;;;14.93;8.95;;;0.70;59.60;;;;;;4650253;30;114701;-80
2023/01/29 09:12:40;;;;;;;16.75;10.15;;;0.80;59.60;;;;;;4651024;30;115303;-79
2023/01/29 09:15:08;;;;;;;17.25;9.38;;;0.90;59.40;;;;;;4650049;30;115171;-79
2023/01/29 09:17:35;;;;;;;13.75;8.48;;;0.90;59.10;;;;;;4620118;30;115850;-80
2023/01/29 09:20:04;;;;;;;11.70;7.88;;;0.90;58.70;;;;;;4649663;30;115911;-79
2023/01/29 09:22:32;;;;;;;11.65;7.03;;;0.90;58.60;;;;;;4649506;30;115800;-79
2023/01/29 09:24:59;;;;;;;12.23;7.22;;;0.80;58.70;;;;;;4649009;30;115338;-79
2023/01/29 09:27:26;;;;;;;11.68;7.15;;;0.80;58.40;;;;;;4650456;30;114717;-79
2023/01/29 09:29:54;;;;;;;11.07;6.68;;;0.70;58.20;;;;;;4649604;30;114894;-79
2023/01/29 09:32:21;;;;;;;11.05;6.32;;;0.70;58.10;;;;;;4636286;30;118946;-81
2023/01/29 09:35:08;;;;;;;10.05;6.20;;;0.60;58.20;;;;;;4650192;30;115132;-80
2023/01/29 09:37:35;;;;;;;14.68;7.35;;;0.60;58.30;;;;;;4635447;30;115335;-78
2023/01/29 09:40:03;;;;;;;16.00;8.05;;;0.60;58.30;;;;;;4651394;30;116447;-79
2023/01/29 09:42:45;;;;;;;23.77;10.35;;;0.50;58.20;;;;;;4650103;30;114710;-79
2023/01/29 09:45:23;;;;;;;18.85;8.98;;;0.40;58.20;;;;;;4649137;30;115245;-80
2023/01/29 09:47:51;;;;;;;14.13;7.18;;;0.40;58.20;;;;;;4635096;30;115253;-80
2023/01/29 09:50:25;;;;;;;13.35;7.28;;;0.50;58.10;;;;;;4636127;30;118980;-81
2023/01/29 09:53:31;;;;;;;13.23;6.57;;;0.50;57.80;;;;;;4636037;30;114791;-79
2023/01/29 09:56:08;;;;;;;12.90;6.70;;;0.50;57.90;;;;;;4637453;30;115214;-78
2023/01/29 09:58:41;;;;;;;19.40;9.25;;;0.50;57.90;;;;;;4634532;30;116688;-78
2023/01/29 10:01:31;;;;;;;12.27;6.68;;;0.50;57.70;;;;;;4635394;30;114485;-78
2023/01/29 10:04:32;;;;;;;9.20;5.63;;;0.50;57.60;;;;;;4649913;30;114500;-79
2023/01/29 10:07:25;;;;;;;7.32;4.43;;;0.50;57.90;;;;;;4648734;30;115204;-79
2023/01/29 10:10:13;;;;;;;8.93;5.18;;;0.50;57.50;;;;;;4648942;30;114771;-78
2023/01/29 10:13:14;;;;;;;7.72;5.20;;;0.40;57.70;;;;;;4651114;30;116716;-78
2023/01/29 10:16:14;;;;;;;9.23;5.80;;;0.50;57.30;;;;;;4649550;30;114618;-79
2023/01/29 10:19:00;;;;;;;9.35;5.80;;;0.50;57.50;;;;;;4649496;30;115280;-78
2023/01/29 10:21:58;;;;;;;12.05;6.53;;;0.40;57.40;;;;;;4649386;30;115060;-78
2023/01/29 10:24:40;;;;;;;12.30;6.50;;;0.50;57.30;;;;;;4648496;30;116472;-78
2023/01/29 10:27:15;;;;;;;10.07;6.43;;;0.50;57.50;;;;;;4635631;30;114608;-78
2023/01/29 10:29:43;;;;;;;10.13;5.85;;;0.50;57.60;;;;;;4620017;30;115405;-78
2023/01/29 10:32:15;;;;;;;9.95;6.03;;;0.50;57.60;;;;;;4650087;30;116272;-78
2023/01/29 10:35:12;;;;;;;10.98;6.18;;;0.50;57.40;;;;;;4646556;30;114567;-78
2023/01/29 10:37:40;;;;;;;11.13;6.68;;;0.50;57.30;;;;;;4646759;30;117230;-78
2023/01/29 10:40:38;;;;;;;24.90;10.30;;;0.50;57.70;;;;;;4631523;30;116072;-78
2023/01/29 10:43:18;;;;;;;26.08;9.50;;;0.60;57.70;;;;;;4631622;30;115955;-79
2023/01/29 10:46:06;;;;;;;13.25;7.18;;;0.60;57.40;;;;;;4646119;30;115361;-79
2023/01/29 10:48:41;;;;;;;14.05;8.25;;;0.60;57.50;;;;;;4632332;30;114563;-78
2023/01/29 10:51:55;;;;;;;23.55;11.07;;;0.60;57.50;;;;;;4646850;30;115178;-79
2023/01/29 10:54:44;;;;;;;15.48;8.68;;;0.60;57.30;;;;;;4645366;30;114684;-79
2023/01/29 10:57:31;;;;;;;16.25;7.88;;;0.60;57.50;;;;;;4636277;30;114608;-83
2023/01/29 11:00:20;;;;;;;15.00;7.72;;;0.60;57.40;;;;;;4649033;30;114821;-79
2023/01/29 11:02:49;;;;;;;15.02;7.90;;;0.60;57.30;;;;;;4649052;30;115121;-79
2023/01/29 11:05:28;;;;;;;15.75;7.53;;;0.60;57.40;;;;;;4634309;30;115988;-79
2023/01/29 11:08:15;;;;;;;14.98;8.10;;;0.60;57.20;;;;;;4635839;30;115398;-79
2023/01/29 11:11:23;;;;;;;12.73;7.72;;;0.60;57.30;;;;;;4636334;30;114474;-79
2023/01/29 11:14:01;;;;;;;13.32;8.20;;;0.60;57.60;;;;;;4625149;30;115139;-79
2023/01/29 11:16:29;;;;;;;17.25;8.20;;;0.70;57.50;;;;;;4634947;30;114930;-79
2023/01/29 11:18:58;;;;;;;12.02;7.55;;;0.80;57.50;;;;;;4649532;30;114933;-79
2023/01/29 11:21:27;;;;;;;14.32;9.35;;;0.80;57.50;;;;;;4635024;30;115508;-81
2023/01/29 11:24:16;;;;;;;14.00;8.63;;;0.80;57.40;;;;;;4648329;30;114998;-78
2023/01/29 11:26:45;;;;;;;14.73;9.60;;;0.90;57.10;;;;;;4661747;30;114783;-78
2023/01/29 11:29:40;;;;;;;15.30;8.93;;;0.90;57.20;;;;;;4663616;30;114435;-78
2023/01/29 11:32:20;;;;;;;14.07;8.40;;;1.00;56.70;;;;;;4635966;30;114413;-78
2023/01/29 11:35:13;;;;;;;14.38;8.13;;;0.90;56.60;;;;;;4662588;30;115163;-78
2023/01/29 11:37:43;;;;;;;14.75;8.35;;;0.90;56.40;;;;;;4632567;30;115756;-78
2023/01/29 11:40:36;;;;;;;11.70;7.28;;;0.90;56.70;;;;;;4648909;30;114764;-78
2023/01/29 11:43:19;;;;;;;10.98;7.45;;;1.00;56.70;;;;;;4663556;30;114652;-78
2023/01/29 11:45:53;;;;;;;11.52;6.80;;;1.00;56.00;;;;;;4647634;30;115191;-77
2023/01/29 11:48:23;;;;;;;9.80;6.50;;;1.00;55.60;;;;;;4634943;30;114721;-77
2023/01/29 11:50:54;;;;;;;11.45;7.15;;;0.90;54.80;;;;;;4647636;30;114455;-78
2023/01/29 11:53:39;;;;;;;11.80;7.45;;;0.90;54.90;;;;;;4634709;30;114641;-77
2023/01/29 11:56:21;;;;;;;12.80;7.55;;;0.90;55.10;;;;;;4661876;30;115434;-77
2023/01/29 11:58:48;;;;;;;12.85;6.90;;;0.90;54.50;;;;;;4662084;30;114862;-77
2023/01/29 12:01:17;;;;;;;12.82;7.32;;;0.80;54.70;;;;;;4662728;30;116061;-77
2023/01/29 12:03:51;;;;;;;12.95;7.63;;;0.80;54.80;;;;;;4647364;30;114493;-77
2023/01/29 12:06:26;;;;;;;12.40;7.65;;;0.90;54.10;;;;;;4633214;30;115963;-77
2023/01/29 12:09:00;;;;;;;11.00;7.13;;;0.80;54.40;;;;;;4647968;30;114781;-77
2023/01/29 12:11:32;;;;;;;12.10;7.10;;;0.90;54.40;;;;;;4648395;30;115108;-77
2023/01/29 12:14:05;;;;;;;10.80;6.55;;;0.90;54.50;;;;;;4648294;30;114434;-77
2023/01/29 12:16:36;;;;;;;12.85;7.35;;;0.90;54.50;;;;;;4647366;30;116312;-78
2023/01/29 12:19:25;;;;;;;10.98;7.00;;;1.00;54.60;;;;;;4633207;30;116523;-78
2023/01/29 12:21:58;;;;;;;11.20;6.30;;;1.00;54.20;;;;;;4635046;30;114590;-77
2023/01/29 12:25:02;;;;;;;9.98;6.57;;;1.00;53.80;;;;;;4634667;30;114708;-76
2023/01/29 12:27:42;;;;;;;11.52;6.60;;;0.90;53.80;;;;;;4634893;30;115286;-79
2023/01/29 12:30:23;;;;;;;11.45;6.82;;;0.80;54.50;;;;;;4633487;30;118036;-79
2023/01/29 12:33:02;;;;;;;12.18;7.20;;;0.80;54.50;;;;;;4647146;30;119223;-78
2023/01/29 12:35:43;;;;;;;12.13;6.72;;;0.90;54.40;;;;;;4649379;30;114382;-79
2023/01/29 12:38:21;;;;;;;10.82;6.82;;;0.90;54.20;;;;;;4636649;30;115562;-79
2023/01/29 12:40:50;;;;;;;11.48;6.40;;;0.90;54.20;;;;;;4651967;30;114726;-80
2023/01/29 12:43:23;;;;;;;9.70;6.07;;;0.90;53.90;;;;;;4636786;30;114568;-79
2023/01/29 12:45:52;;;;;;;10.57;6.50;;;0.90;54.00;;;;;;4637108;30;114429;-79
2023/01/29 12:48:33;;;;;;;11.18;6.25;;;1.00;53.90;;;;;;4636533;30;115143;-79
2023/01/29 12:51:09;;;;;;;10.10;6.60;;;1.00;53.60;;;;;;4637078;30;114907;-79
2023/01/29 12:53:40;;;;;;;11.00;6.38;;;0.90;53.50;;;;;;4637467;30;114380;-79
2023/01/29 12:56:31;;;;;;;9.63;6.55;;;0.90;53.10;;;;;;4637579;30;114454;-79
2023/01/29 12:59:00;;;;;;;11.27;6.97;;;0.70;53.00;;;;;;4636611;30;115117;-79
2023/01/29 13:01:30;;;;;;;11.10;6.90;;;0.60;53.00;;;;;;4637068;30;114596;-78
2023/01/29 13:04:12;;;;;;;12.23;7.57;;;0.60;53.30;;;;;;4651690;30;114475;-78
2023/01/29 13:06:43;;;;;;;11.13;6.97;;;0.60;53.30;;;;;;4623220;30;114427;-79
2023/01/29 13:09:16;;;;;;;12.68;7.95;;;0.50;53.90;;;;;;4649941;30;115309;-78
2023/01/29 13:12:01;;;;;;;11.80;7.03;;;0.60;54.00;;;;;;4637599;30;115320;-79
2023/01/29 13:14:46;;;;;;;9.95;6.25;;;0.60;54.10;;;;;;4636723;30;114744;-79
2023/01/29 13:17:39;;;;;;;10.80;7.03;;;0.60;53.70;;;;;;4637034;30;114590;-79
2023/01/29 13:20:28;;;;;;;12.48;7.07;;;0.70;53.70;;;;;;4651385;30;115498;-79
2023/01/29 13:23:02;;;;;;;11.80;6.78;;;0.60;53.80;;;;;;4636479;30;115133;-78
2023/01/29 13:25:29;;;;;;;12.15;7.53;;;0.70;53.90;;;;;;4638040;30;114514;-78
2023/01/29 13:27:56;;;;;;;11.05;7.00;;;0.60;53.80;;;;;;4652915;30;114286;-80
2023/01/29 13:30:29;;;;;;;11.55;7.20;;;0.70;53.90;;;;;;4650144;30;115205;-78
2023/01/29 13:33:09;;;;;;;12.27;7.30;;;0.60;53.80;;;;;;4649534;30;115331;-78
2023/01/29 13:35:40;;;;;;;11.63;6.65;;;0.60;53.70;;;;;;4637429;30;114673;-79
2023/01/29 13:38:27;;;;;;;14.18;8.15;;;0.60;53.60;;;;;;4637063;30;114697;-79
2023/01/29 13:41:00;;;;;;;18.00;8.35;;;0.60;53.90;;;;;;4650635;30;117407;-79
2023/01/29 13:43:28;;;;;;;12.30;7.43;;;0.60;54.30;;;;;;4635513;30;115069;-77
2023/01/29 13:45:55;;;;;;;12.48;7.57;;;0.60;54.20;;;;;;4621939;30;114453;-78